Time;durP1;ratioP1;P1;durP2;ratioP2;P2;SDS_P1;SDS_P2;PMS_P1;PMS_P2;Temp;Humidity;BMP_temperature;BMP_pressure;BME280_temperature;BME280_humidity;BME280_pressure;Samples;Min_cycle;Max_cycle;Signal;HPM_P1;HPM_P2
2023/06/04 00:01:10;;;;;;;11.25;5.25;;;15.30;99.90;;;14.69;100.00;101238.81;4137112;28;20023;-81
2023/06/04 00:03:11;;;;;;;11.40;5.40;;;15.30;99.90;;;14.64;100.00;101239.31;4166003;28;20375;-82
2023/06/04 00:05:12;;;;;;;11.57;5.15;;;15.20;99.90;;;14.63;100.00;101234.19;4137091;28;20101;-82
2023/06/04 00:07:13;;;;;;;8.45;5.05;;;15.30;99.90;;;14.71;100.00;101250.09;4152795;28;20040;-82
2023/06/04 00:09:13;;;;;;;14.23;5.97;;;15.20;99.90;;;14.60;100.00;101234.53;4153112;28;20037;-82
2023/06/04 00:11:14;;;;;;;9.80;5.15;;;15.20;99.90;;;14.57;100.00;101230.41;4170518;28;20065;-82
2023/06/04 00:13:15;;;;;;;11.93;5.03;;;15.20;99.90;;;14.61;100.00;101242.31;4169468;28;20033;-83
2023/06/04 00:15:16;;;;;;;7.60;4.95;;;15.20;99.90;;;14.66;100.00;101236.50;4170273;28;20102;-82
2023/06/04 00:17:17;;;;;;;8.30;5.30;;;15.20;99.90;;;14.68;100.00;101250.44;4156408;28;20040;-82
2023/06/04 00:19:18;;;;;;;9.35;4.95;;;15.20;99.90;;;14.68;100.00;101250.44;4154203;28;20021;-82
2023/06/04 00:21:19;;;;;;;11.65;5.78;;;15.20;99.90;;;14.60;100.00;101247.81;4154385;28;20030;-83
2023/06/04 00:23:20;;;;;;;12.85;5.88;;;15.20;99.90;;;14.61;100.00;101246.78;4171622;28;20500;-82
2023/06/04 00:25:21;;;;;;;7.35;4.80;;;15.10;99.90;;;14.47;100.00;101235.06;4136384;28;20065;-83
2023/06/04 00:27:22;;;;;;;9.80;5.07;;;15.10;99.90;;;14.43;100.00;101232.88;4136763;28;20090;-82
2023/06/04 00:29:23;;;;;;;8.65;4.88;;;15.10;99.90;;;14.42;100.00;101233.91;4152691;28;20038;-82
2023/06/04 00:31:24;;;;;;;7.88;5.22;;;15.00;99.90;;;14.42;100.00;101242.69;4137339;28;20027;-83
2023/06/04 00:33:25;;;;;;;8.10;4.93;;;15.00;99.90;;;14.35;100.00;101231.91;4159021;28;20050;-83
2023/06/04 00:35:26;;;;;;;8.48;5.57;;;15.00;99.90;;;14.30;100.00;101228.91;4172143;28;20029;-83
2023/06/04 00:37:28;;;;;;;11.02;5.40;;;14.90;99.90;;;14.40;100.00;101242.84;4168669;28;20124;-82
2023/06/04 00:39:29;;;;;;;7.95;4.53;;;14.90;99.90;;;14.28;100.00;101228.25;4185575;28;20021;-82
2023/06/04 00:41:30;;;;;;;7.20;4.20;;;14.90;99.90;;;14.30;100.00;101242.19;4166213;28;20101;-83
2023/06/04 00:43:32;;;;;;;6.22;4.65;;;14.80;99.90;;;14.14;100.00;101220.97;4153720;28;20101;-83
2023/06/04 00:45:34;;;;;;;9.85;4.53;;;14.80;99.90;;;14.14;100.00;101223.63;4152709;28;20214;-83
2023/06/04 00:47:35;;;;;;;12.63;5.30;;;14.70;99.90;;;14.19;100.00;101239.03;4152539;28;20504;-83
2023/06/04 00:49:36;;;;;;;7.75;4.45;;;14.70;99.90;;;14.09;100.00;101225.13;4152422;28;20034;-83
2023/06/04 00:51:37;;;;;;;7.05;4.68;;;14.70;99.90;;;13.99;100.00;101219.16;4154243;28;20020;-83
2023/06/04 00:53:39;;;;;;;11.93;6.10;;;14.70;99.90;;;13.98;100.00;101222.81;4136109;28;20026;-83
2023/06/04 00:55:40;;;;;;;10.50;4.97;;;14.60;99.90;;;14.05;100.00;101232.59;4152346;28;20030;-83
2023/06/04 00:57:41;;;;;;;11.60;5.57;;;14.60;99.90;;;13.96;100.00;101222.97;4152160;28;20048;-83
2023/06/04 00:59:41;;;;;;;12.30;4.88;;;14.60;99.90;;;13.99;100.00;101229.75;4152118;28;20115;-83
2023/06/04 01:02:15;;;;;;;10.13;4.53;;;14.60;99.90;;;14.01;100.00;101228.59;4156377;28;20017;-82
2023/06/04 01:04:49;;;;;;;8.85;4.25;;;14.60;99.90;;;13.82;100.00;101208.56;4173375;28;20044;-83
2023/06/04 01:06:53;;;;;;;9.68;4.82;;;14.50;99.90;;;13.83;100.00;101217.31;4138987;28;20457;-83
2023/06/04 01:08:57;;;;;;;10.25;4.60;;;14.50;99.90;;;13.79;100.00;101216.00;4152188;28;20033;-82
2023/06/04 01:10:58;;;;;;;9.15;4.38;;;14.50;99.90;;;13.82;100.00;101215.69;4168158;28;20057;-82
2023/06/04 01:12:59;;;;;;;6.90;3.88;;;14.40;99.90;;;13.69;100.00;101210.03;4149921;28;20026;-83
2023/06/04 01:15:00;;;;;;;7.80;4.45;;;14.40;99.90;;;13.69;100.00;101210.88;4169432;28;20037;-83
2023/06/04 01:17:15;;;;;;;6.28;4.05;;;14.30;99.90;;;13.76;100.00;101237.56;4156886;28;20079;-82
2023/06/04 01:19:41;;;;;;;10.60;5.47;;;14.30;99.90;;;13.66;100.00;101220.97;4139749;28;20478;-82
2023/06/04 01:21:44;;;;;;;7.28;3.95;;;14.30;99.90;;;13.55;100.00;101205.38;4158570;28;20112;-83
2023/06/04 01:23:58;;;;;;;10.00;5.45;;;14.30;99.90;;;13.61;100.00;101220.63;4168187;28;20389;-82
2023/06/04 01:26:03;;;;;;;9.98;5.82;;;14.20;99.90;;;13.57;100.00;101219.28;4152734;28;20520;-82
2023/06/04 01:28:11;;;;;;;12.32;4.88;;;14.20;99.90;;;13.62;100.00;101225.75;4184363;28;20025;-81
2023/06/04 01:30:13;;;;;;;10.55;4.63;;;14.20;99.90;;;13.63;100.00;101223.94;4152331;28;20109;-82
2023/06/04 01:32:14;;;;;;;6.95;4.63;;;14.20;99.90;;;13.63;100.00;101242.50;4146667;28;20026;-82
2023/06/04 01:34:15;;;;;;;11.27;4.65;;;14.10;99.90;;;13.48;100.00;101212.31;4144241;28;20023;-83
2023/06/04 01:36:16;;;;;;;10.02;4.50;;;14.10;99.90;;;13.57;100.00;101237.84;4151886;28;20045;-82
2023/06/04 01:38:18;;;;;;;10.68;4.47;;;14.10;99.90;;;13.35;100.00;101206.69;4135307;28;20022;-81
2023/06/04 01:40:19;;;;;;;8.35;4.82;;;14.00;99.90;;;13.36;100.00;101214.44;4151451;28;20537;-82
2023/06/04 01:42:20;;;;;;;12.00;4.88;;;14.00;99.90;;;13.33;100.00;101204.19;4173946;28;20025;-81
2023/06/04 01:44:24;;;;;;;9.85;5.13;;;14.00;99.90;;;13.19;100.00;101195.06;4151625;28;20451;-82
2023/06/04 01:46:32;;;;;;;7.15;5.35;;;13.90;99.90;;;13.31;100.00;101227.38;4151636;28;20536;-81
2023/06/04 01:48:38;;;;;;;7.45;4.80;;;13.80;99.90;;;13.12;100.00;101199.31;4136236;28;20061;-81
2023/06/04 01:50:39;;;;;;;7.63;4.57;;;13.80;99.90;;;13.26;100.00;101240.28;4167603;28;20029;-81
2023/06/04 01:52:40;;;;;;;9.48;4.32;;;13.80;99.90;;;13.20;100.00;101233.78;4162096;28;20037;-82
2023/06/04 01:54:42;;;;;;;10.05;4.82;;;13.70;99.90;;;13.01;100.00;101204.91;4169009;28;20039;-81
2023/06/04 01:56:43;;;;;;;9.60;4.85;;;13.70;99.90;;;13.05;100.00;101216.81;4169190;28;20236;-82
2023/06/04 01:58:44;;;;;;;7.63;4.63;;;13.70;99.90;;;13.12;100.00;101238.22;4168118;28;20412;-82
2023/06/04 02:00:46;;;;;;;8.10;4.97;;;13.60;99.90;;;13.06;100.00;101222.94;4167812;28;20029;-82
2023/06/04 02:02:50;;;;;;;8.88;5.25;;;13.60;99.90;;;13.13;100.00;101231.94;4157228;28;20018;-82
2023/06/04 02:04:51;;;;;;;10.98;5.25;;;13.60;99.90;;;13.14;100.00;101237.06;4135324;28;20038;-82
2023/06/04 02:06:52;;;;;;;11.32;4.82;;;13.60;99.90;;;12.99;100.00;101212.16;4152295;28;20030;-82
2023/06/04 02:08:54;;;;;;;8.90;4.80;;;13.70;99.90;;;13.04;100.00;101223.13;4152459;28;20037;-82
2023/06/04 02:10:54;;;;;;;7.82;4.55;;;13.70;99.90;;;13.03;100.00;101224.09;4150975;28;20028;-82
2023/06/04 02:13:04;;;;;;;7.75;4.80;;;13.60;99.90;;;13.10;100.00;101242.84;4164024;28;20025;-82
2023/06/04 02:15:07;;;;;;;11.15;5.18;;;13.60;99.90;;;13.02;100.00;101233.03;4167374;28;20036;-81
2023/06/04 02:17:16;;;;;;;11.05;4.80;;;13.60;99.90;;;13.01;100.00;101235.84;4179593;28;20087;-82
2023/06/04 02:19:18;;;;;;;11.52;4.43;;;13.60;99.90;;;12.97;100.00;101227.38;4183365;28;20055;-81
2023/06/04 02:21:19;;;;;;;9.40;5.13;;;13.50;99.90;;;12.90;100.00;101215.78;4150950;28;20029;-82
2023/06/04 02:23:21;;;;;;;9.20;4.57;;;13.50;99.90;;;12.90;100.00;101221.09;4164860;28;20104;-82
2023/06/04 02:25:23;;;;;;;8.45;5.13;;;13.50;99.90;;;13.00;100.00;101232.34;4167377;28;20026;-80
2023/06/04 02:27:24;;;;;;;11.35;5.88;;;13.50;99.90;;;13.00;100.00;101236.81;4167539;28;20112;-82
2023/06/04 02:29:25;;;;;;;7.15;4.97;;;13.50;99.90;;;12.94;100.00;101225.06;4184066;28;20031;-81
2023/06/04 02:31:26;;;;;;;12.27;5.25;;;13.50;99.90;;;12.85;100.00;101209.28;4167291;28;20029;-81
2023/06/04 02:33:26;;;;;;;8.32;5.25;;;13.50;99.90;;;12.90;100.00;101220.25;4167233;28;20437;-81
2023/06/04 02:35:31;;;;;;;10.23;5.32;;;13.50;99.90;;;12.85;100.00;101214.56;4151308;28;20030;-82
2023/06/04 02:37:32;;;;;;;8.80;4.18;;;13.50;99.90;;;12.96;100.00;101238.16;4134640;28;20121;-81
2023/06/04 02:39:33;;;;;;;6.85;4.50;;;13.50;99.90;;;12.91;100.00;101241.25;4151071;28;20038;-82
2023/06/04 02:41:34;;;;;;;10.02;5.22;;;13.40;99.90;;;12.85;100.00;101236.59;4134587;28;20049;-81
2023/06/04 02:43:36;;;;;;;7.82;5.43;;;13.40;99.90;;;12.74;100.00;101218.34;4134611;28;20019;-82
2023/06/04 02:45:37;;;;;;;9.77;5.10;;;13.40;99.90;;;12.85;100.00;101231.28;4167419;28;20369;-82
2023/06/04 02:47:38;;;;;;;9.57;5.15;;;13.40;99.90;;;12.69;100.00;101210.06;4152282;28;20122;-81
2023/06/04 02:49:39;;;;;;;11.10;5.68;;;13.40;99.90;;;12.75;100.00;101218.19;4152392;28;20041;-82
2023/06/04 02:51:41;;;;;;;9.73;5.40;;;13.40;99.90;;;12.76;100.00;101224.31;4150474;28;20025;-82
2023/06/04 02:53:42;;;;;;;7.60;4.20;;;13.40;99.90;;;12.77;100.00;101223.31;4151025;28;20053;-81
2023/06/04 02:55:43;;;;;;;9.05;4.95;;;13.30;99.90;;;12.77;100.00;101226.81;4155239;28;20022;-82
2023/06/04 02:57:44;;;;;;;11.18;5.50;;;13.30;99.90;;;12.75;100.00;101226.13;4154476;28;20030;-81
2023/06/04 02:59:45;;;;;;;12.65;5.18;;;13.30;99.90;;;12.75;100.00;101230.59;4170533;28;20029;-81
2023/06/04 03:01:45;;;;;;;8.90;5.25;;;13.20;99.90;;;12.71;100.00;101229.25;4154112;28;20033;-81
2023/06/04 03:03:47;;;;;;;11.35;5.00;;;13.20;99.90;;;12.63;100.00;101210.69;4170431;28;20022;-82
2023/06/04 03:05:49;;;;;;;8.98;5.10;;;13.30;99.90;;;12.67;100.00;101220.78;4141077;28;20026;-82
2023/06/04 03:07:50;;;;;;;12.95;5.95;;;13.20;99.90;;;12.63;100.00;101213.34;4186674;28;20108;-82
2023/06/04 03:09:51;;;;;;;12.55;4.70;;;13.20;99.90;;;12.63;100.00;101211.50;4153872;28;20033;-81
2023/06/04 03:11:51;;;;;;;8.70;4.90;;;13.20;99.90;;;12.61;100.00;101207.34;4170399;28;20025;-82
2023/06/04 03:13:52;;;;;;;11.38;5.13;;;13.20;99.90;;;12.67;100.00;101214.66;4170361;28;20459;-82
2023/06/04 03:15:55;;;;;;;10.00;5.15;;;13.20;99.90;;;12.67;100.00;101217.31;4183897;28;20512;-81
2023/06/04 03:17:56;;;;;;;7.35;5.25;;;13.20;99.90;;;12.44;100.00;101182.63;4155173;28;20555;-82
2023/06/04 03:19:57;;;;;;;9.18;4.75;;;13.20;99.90;;;12.55;100.00;101208.81;4153900;28;20416;-82
2023/06/04 03:22:00;;;;;;;7.95;4.38;;;13.10;99.90;;;12.51;100.00;101199.56;4156156;28;20033;-83
2023/06/04 03:24:01;;;;;;;13.25;5.03;;;13.20;99.90;;;12.54;100.00;101203.69;4138340;28;20041;-81
2023/06/04 03:26:03;;;;;;;8.63;4.72;;;13.10;99.90;;;12.48;100.00;101196.38;4137655;28;20023;-82
2023/06/04 03:28:04;;;;;;;11.05;5.53;;;13.10;99.90;;;12.44;100.00;101200.31;4153704;28;20034;-81
2023/06/04 03:30:06;;;;;;;10.25;5.88;;;13.10;99.90;;;12.38;100.00;101193.84;4137245;28;20092;-81
2023/06/04 03:32:07;;;;;;;8.75;5.03;;;13.10;99.90;;;12.34;100.00;101189.00;4153338;28;20030;-82
2023/06/04 03:34:09;;;;;;;10.10;5.03;;;13.00;99.90;;;12.43;100.00;101207.41;4137199;28;20037;-82
2023/06/04 03:36:10;;;;;;;6.85;4.30;;;13.00;99.90;;;12.42;100.00;101204.94;4153103;28;20523;-81
2023/06/04 03:38:11;;;;;;;8.85;4.57;;;13.00;99.90;;;12.33;100.00;101188.22;4169752;28;20029;-81
2023/06/04 03:40:13;;;;;;;11.32;5.38;;;13.00;99.90;;;12.44;100.00;101213.56;4169774;28;20033;-81
2023/06/04 03:42:14;;;;;;;10.07;4.78;;;13.00;99.90;;;12.40;100.00;101220.13;4154754;28;20515;-81
2023/06/04 03:44:16;;;;;;;6.15;4.25;;;12.90;99.90;;;12.36;100.00;101217.00;4137262;28;20092;-81
2023/06/04 03:46:17;;;;;;;9.32;5.32;;;12.90;99.90;;;12.38;100.00;101216.81;4182258;28;20029;-82
2023/06/04 03:48:18;;;;;;;9.82;4.95;;;12.90;99.90;;;12.20;100.00;101193.91;4153092;28;20033;-82
2023/06/04 03:50:19;;;;;;;9.35;4.53;;;12.90;99.90;;;12.30;100.00;101214.97;4158882;28;20049;-82
2023/06/04 03:52:20;;;;;;;13.30;4.95;;;12.90;99.90;;;12.32;100.00;101223.56;4170759;28;20021;-81
2023/06/04 03:54:22;;;;;;;9.43;5.32;;;12.90;99.90;;;12.29;100.00;101228.34;4170788;28;20030;-82
2023/06/04 03:56:23;;;;;;;9.40;4.50;;;12.80;99.90;;;12.18;100.00;101206.44;4169506;28;20029;-82
2023/06/04 03:58:23;;;;;;;9.00;4.68;;;12.80;99.90;;;12.26;100.00;101220.72;4169695;28;20026;-81
2023/06/04 04:00:25;;;;;;;6.60;4.25;;;12.80;99.90;;;12.19;100.00;101218.69;4169983;28;20026;-82
2023/06/04 04:02:25;;;;;;;7.93;4.45;;;12.80;99.90;;;12.06;100.00;101201.56;4185955;28;20028;-81
2023/06/04 04:04:26;;;;;;;8.32;4.93;;;12.80;99.90;;;12.14;100.00;101223.63;4170758;28;20040;-81
2023/06/04 04:06:27;;;;;;;8.70;4.63;;;12.80;99.90;;;12.13;100.00;101219.31;4151451;28;20022;-82
2023/06/04 04:08:31;;;;;;;11.13;5.13;;;12.70;99.90;;;12.08;100.00;101216.28;4169312;28;20105;-82
2023/06/04 04:10:32;;;;;;;10.45;5.80;;;12.70;99.90;;;12.05;100.00;101221.06;4169456;28;20031;-81
2023/06/04 04:12:33;;;;;;;11.15;5.38;;;12.70;99.90;;;12.13;100.00;101229.88;4153009;28;20029;-82
2023/06/04 04:14:33;;;;;;;8.05;4.13;;;12.70;99.90;;;12.00;100.00;101205.66;4169242;28;20504;-82
2023/06/04 04:16:34;;;;;;;11.52;5.18;;;12.70;99.90;;;12.11;100.00;101231.84;4145092;28;20042;-82
2023/06/04 04:18:36;;;;;;;9.38;4.57;;;12.60;99.90;;;12.02;100.00;101219.56;4147565;28;20497;-82
2023/06/04 04:20:37;;;;;;;10.15;4.63;;;12.60;99.90;;;11.95;100.00;101212.38;4169283;28;20064;-82
2023/06/04 04:22:41;;;;;;;12.27;5.25;;;12.60;99.90;;;11.84;100.00;101200.25;4177580;28;20068;-81
2023/06/04 04:24:43;;;;;;;8.57;5.10;;;12.60;99.90;;;12.04;100.00;101244.03;4152849;28;20030;-82
2023/06/04 04:26:44;;;;;;;9.63;5.13;;;12.60;99.90;;;12.00;100.00;101236.56;4136670;28;20036;-82
2023/06/04 04:28:45;;;;;;;9.77;4.95;;;12.60;99.90;;;11.90;100.00;101227.88;4153897;28;20034;-82
2023/06/04 04:30:46;;;;;;;8.00;5.00;;;12.50;99.90;;;11.77;100.00;101211.59;4136469;28;20390;-82
2023/06/04 04:32:50;;;;;;;11.05;4.68;;;12.50;99.90;;;11.82;100.00;101214.59;4153866;28;20030;-82
2023/06/04 04:34:54;;;;;;;7.80;4.22;;;12.50;99.90;;;11.89;100.00;101237.63;4136571;28;20085;-82
2023/06/04 04:36:56;;;;;;;8.93;4.57;;;12.50;99.90;;;11.87;100.00;101239.59;4136045;28;20030;-82
2023/06/04 04:38:58;;;;;;;8.45;5.00;;;12.50;99.90;;;11.82;100.00;101226.00;4152497;28;20022;-82
2023/06/04 04:41:00;;;;;;;7.82;4.30;;;12.50;99.90;;;11.91;100.00;101248.88;4136322;28;20028;-82
2023/06/04 04:43:01;;;;;;;11.13;4.93;;;12.50;99.90;;;11.86;100.00;101234.44;4168846;28;20022;-82
2023/06/04 04:45:02;;;;;;;6.25;4.30;;;12.50;99.90;;;11.94;100.00;101245.94;4152345;28;20034;-82
2023/06/04 04:47:03;;;;;;;6.55;4.30;;;12.50;99.90;;;11.86;100.00;101232.63;4152585;28;20382;-82
2023/06/04 04:49:04;;;;;;;7.07;4.40;;;12.50;99.90;;;11.96;100.00;101243.13;4168826;28;20065;-82
2023/06/04 04:51:05;;;;;;;9.63;4.40;;;12.50;99.90;;;12.00;100.00;101252.44;4168710;28;20021;-82
2023/06/04 04:53:06;;;;;;;6.82;3.90;;;12.50;99.90;;;11.90;100.00;101234.00;4152125;28;20041;-82
2023/06/04 04:55:07;;;;;;;8.30;4.80;;;12.50;99.90;;;12.05;100.00;101256.28;4152196;28;20021;-82
2023/06/04 04:57:08;;;;;;;6.88;4.50;;;12.60;99.90;;;12.07;100.00;101254.28;4168592;28;20096;-82
2023/06/04 04:59:09;;;;;;;7.47;4.45;;;12.60;99.90;;;12.15;100.00;101262.31;4169538;28;20022;-81
2023/06/04 05:01:10;;;;;;;9.40;4.30;;;12.60;99.90;;;12.20;100.00;101257.38;4151723;28;20397;-82
2023/06/04 05:03:11;;;;;;;8.60;5.07;;;12.70;99.90;;;12.09;100.00;101228.53;4169787;28;20080;-81
2023/06/04 05:05:12;;;;;;;10.77;4.50;;;12.70;99.90;;;12.27;100.00;101254.13;4169984;28;20095;-82
2023/06/04 05:07:13;;;;;;;10.93;4.97;;;12.80;99.90;;;12.13;100.00;101232.53;4168299;28;20057;-82
2023/06/04 05:09:15;;;;;;;11.15;4.80;;;12.80;99.90;;;12.26;100.00;101248.00;4169555;28;20511;-82
2023/06/04 05:11:16;;;;;;;9.40;4.20;;;12.90;99.90;;;12.31;100.00;101242.22;4168673;28;20025;-81
2023/06/04 05:13:17;;;;;;;7.90;4.53;;;12.90;99.90;;;12.33;100.00;101242.91;4168668;28;20481;-82
2023/06/04 05:15:19;;;;;;;7.35;4.30;;;12.90;99.90;;;12.36;100.00;101235.50;4169391;28;20053;-81
2023/06/04 05:17:29;;;;;;;12.73;4.43;;;13.00;99.90;;;12.38;100.00;101238.00;4153556;28;20030;-82
2023/06/04 05:19:32;;;;;;;10.80;4.50;;;13.00;99.90;;;12.41;100.00;101232.38;4151957;28;20647;-80
2023/06/04 05:21:33;;;;;;;9.10;4.40;;;13.10;99.90;;;12.47;100.00;101243.19;4151574;28;20034;-81
2023/06/04 05:23:37;;;;;;;7.57;4.13;;;13.10;99.90;;;12.65;100.00;101256.34;4155205;28;20121;-82
2023/06/04 05:25:38;;;;;;;9.40;4.63;;;13.20;99.90;;;12.67;100.00;101259.66;4151809;28;20030;-82
2023/06/04 05:27:40;;;;;;;9.50;4.05;;;13.20;99.90;;;12.74;100.00;101266.00;4135729;28;20540;-82
2023/06/04 05:29:41;;;;;;;8.35;4.60;;;13.20;99.90;;;12.72;100.00;101257.41;4152132;28;20429;-81
2023/06/04 05:31:42;;;;;;;7.88;4.53;;;13.30;99.90;;;12.83;100.00;101267.69;4155677;28;20029;-81
2023/06/04 05:33:43;;;;;;;7.28;3.83;;;13.30;99.90;;;12.81;100.00;101250.31;4168003;28;20037;-82
2023/06/04 05:35:48;;;;;;;8.70;4.20;;;13.40;99.90;;;12.83;100.00;101249.16;4178604;28;20029;-81
2023/06/04 05:37:53;;;;;;;6.90;3.80;;;13.40;99.90;;;12.87;100.00;101258.47;4152794;28;20026;-81
2023/06/04 05:39:56;;;;;;;6.80;4.03;;;13.50;99.90;;;13.01;100.00;101273.75;4152853;28;20030;-81
2023/06/04 05:41:57;;;;;;;8.18;3.53;;;13.50;99.90;;;13.06;100.00;101271.44;4151477;28;20073;-81
2023/06/04 05:43:58;;;;;;;9.52;4.40;;;13.60;99.90;;;13.04;100.00;101265.50;4168019;28;20021;-81
2023/06/04 05:45:59;;;;;;;8.20;4.18;;;13.60;99.90;;;13.13;100.00;101277.81;4151599;28;20033;-82
2023/06/04 05:48:00;;;;;;;13.05;4.57;;;13.60;99.90;;;13.09;100.00;101257.91;4151599;28;20014;-81
2023/06/04 05:50:01;;;;;;;6.75;4.13;;;13.70;99.90;;;13.16;100.00;101264.25;4153606;28;20520;-81
2023/06/04 05:52:02;;;;;;;8.25;3.58;;;13.70;99.90;;;13.14;100.00;101258.25;4167869;28;20026;-81
2023/06/04 05:54:03;;;;;;;8.32;4.10;;;13.70;99.90;;;13.27;100.00;101279.84;4184267;28;20105;-82
2023/06/04 05:56:04;;;;;;;8.77;4.07;;;13.80;99.90;;;13.16;100.00;101258.13;4166900;28;20026;-82
2023/06/04 05:58:05;;;;;;;10.32;3.60;;;13.80;99.90;;;13.32;100.00;101266.94;4167864;28;20025;-82
2023/06/04 06:00:10;;;;;;;9.75;3.95;;;13.90;99.90;;;13.51;100.00;101283.56;4167849;28;20025;-81
2023/06/04 06:02:12;;;;;;;5.32;3.42;;;13.90;99.90;;;13.44;100.00;101270.13;4167895;28;20021;-82
2023/06/04 06:04:13;;;;;;;5.25;2.95;;;14.00;99.90;;;13.55;100.00;101266.34;4167724;28;20112;-81
2023/06/04 06:06:14;;;;;;;8.30;3.30;;;14.10;99.90;;;13.61;100.00;101271.84;4183954;28;20025;-81
2023/06/04 06:08:15;;;;;;;5.60;3.15;;;14.10;99.90;;;13.70;100.00;101277.97;4171864;28;20053;-82
2023/06/04 06:10:16;;;;;;;5.82;2.90;;;14.20;99.90;;;13.67;100.00;101273.00;4152489;28;20080;-82
2023/06/04 06:12:17;;;;;;;7.05;3.22;;;14.20;99.90;;;13.73;100.00;101275.00;4134856;28;20121;-82
2023/06/04 06:14:17;;;;;;;8.07;3.50;;;14.30;99.90;;;13.83;100.00;101283.63;4167418;28;20033;-82
2023/06/04 06:16:18;;;;;;;6.43;3.40;;;14.30;99.90;;;13.79;100.00;101269.03;4173184;28;20432;-82
2023/06/04 06:18:19;;;;;;;7.05;2.90;;;14.40;99.90;;;13.85;100.00;101276.34;4167646;28;20138;-82
2023/06/04 06:20:21;;;;;;;7.30;2.88;;;14.40;99.90;;;13.87;100.00;101271.69;4151340;28;20053;-82
2023/06/04 06:22:23;;;;;;;6.75;3.40;;;14.50;99.90;;;13.99;100.00;101269.53;4161359;28;20022;-82
2023/06/04 06:24:24;;;;;;;7.00;3.55;;;14.50;99.90;;;14.12;100.00;101278.69;4152826;28;20036;-82
2023/06/04 06:26:25;;;;;;;9.07;3.53;;;14.60;99.90;;;14.21;100.00;101288.31;4151247;28;20048;-81
2023/06/04 06:28:26;;;;;;;5.30;3.35;;;14.70;99.90;;;14.18;100.00;101270.06;4152055;28;20480;-79
2023/06/04 06:30:27;;;;;;;6.72;3.45;;;14.70;99.90;;;14.22;100.00;101266.06;4150602;28;20106;-80
2023/06/04 06:32:28;;;;;;;8.23;3.55;;;14.80;99.90;;;14.28;100.00;101259.25;4167640;28;20108;-80
2023/06/04 06:34:29;;;;;;;5.85;2.88;;;14.80;99.90;;;14.29;100.00;101255.63;4150885;28;20433;-80
2023/06/04 06:36:30;;;;;;;4.05;2.33;;;14.90;99.90;;;14.35;100.00;101255.81;4151965;28;20106;-80
2023/06/04 06:38:31;;;;;;;6.45;3.65;;;15.00;99.90;;;14.51;100.00;101273.53;4150939;28;20037;-80
2023/06/04 06:40:32;;;;;;;7.97;3.53;;;15.00;99.90;;;14.47;100.00;101263.41;4153090;28;20049;-80
2023/06/04 06:42:33;;;;;;;8.63;3.60;;;15.10;99.90;;;14.56;100.00;101265.91;4167055;28;20042;-78
2023/06/04 06:44:35;;;;;;;4.57;2.72;;;15.10;99.90;;;14.56;100.00;101257.09;4152095;28;20041;-80
2023/06/04 06:46:35;;;;;;;7.78;2.95;;;15.20;99.90;;;14.75;100.00;101272.66;4150867;28;20424;-79
2023/06/04 06:48:36;;;;;;;9.95;2.97;;;15.20;99.90;;;14.87;100.00;101285.38;4150984;28;20062;-76
2023/06/04 06:50:37;;;;;;;8.73;3.55;;;15.30;99.90;;;15.00;100.00;101290.16;4167362;28;20041;-77
2023/06/04 06:52:38;;;;;;;7.13;2.80;;;15.40;99.90;;;14.96;100.00;101254.34;4163500;28;20017;-77
2023/06/04 06:54:39;;;;;;;5.72;2.90;;;15.50;99.90;;;15.08;100.00;101262.75;4150828;28;20121;-76
2023/06/04 06:56:41;;;;;;;4.43;2.83;;;15.60;99.90;;;15.19;100.00;101275.66;4155225;28;20041;-77
2023/06/04 06:58:41;;;;;;;6.63;2.78;;;15.70;99.90;;;15.23;100.00;101269.81;4183741;28;20078;-77
2023/06/04 07:00:42;;;;;;;7.63;3.47;;;15.70;99.90;;;15.33;100.00;101288.22;4150981;28;20026;-77
2023/06/04 07:02:43;;;;;;;8.02;3.35;;;15.80;99.90;;;15.29;100.00;101271.78;4183082;28;20021;-78
2023/06/04 07:04:44;;;;;;;9.38;3.03;;;15.90;99.90;;;15.32;100.00;101262.66;4134576;28;20077;-79
2023/06/04 07:06:45;;;;;;;8.93;3.35;;;15.90;99.90;;;15.56;100.00;101293.63;4166967;28;20036;-79
2023/06/04 07:08:47;;;;;;;5.93;2.97;;;16.00;99.90;;;15.44;100.00;101270.03;4152245;28;20088;-79
2023/06/04 07:10:48;;;;;;;8.60;2.95;;;16.00;99.90;;;15.59;100.00;101282.63;4151890;28;20400;-80
2023/06/04 07:12:49;;;;;;;6.70;3.05;;;16.10;99.90;;;15.69;100.00;101281.41;4164753;28;20059;-79
2023/06/04 07:14:50;;;;;;;7.07;2.47;;;16.20;99.90;;;15.75;100.00;101270.06;4167061;28;20092;-79
2023/06/04 07:16:51;;;;;;;5.32;3.47;;;16.20;99.90;;;15.77;100.00;101256.59;4157993;28;20030;-79
2023/06/04 07:18:52;;;;;;;7.00;2.92;;;16.40;99.90;;;15.87;100.00;101267.81;4134328;28;20430;-77
2023/06/04 07:20:53;;;;;;;8.05;2.28;;;16.40;99.90;;;16.04;100.00;101282.63;4152026;28;20026;-78
2023/06/04 07:22:54;;;;;;;4.80;2.40;;;16.50;99.90;;;16.08;100.00;101267.97;4156945;28;20030;-78
2023/06/04 07:24:55;;;;;;;7.22;2.70;;;16.60;99.90;;;16.12;100.00;101269.28;4151933;28;20034;-77
2023/06/04 07:26:56;;;;;;;5.80;2.35;;;16.70;99.90;;;16.30;97.36;101288.44;4151788;28;20029;-78
2023/06/04 07:28:57;;;;;;;8.05;2.70;;;16.80;99.90;;;16.41;96.10;101292.47;4134542;28;20035;-77
2023/06/04 07:30:58;;;;;;;4.53;2.08;;;16.90;99.90;;;16.35;95.59;101267.41;4152116;28;20057;-79
2023/06/04 07:32:59;;;;;;;10.15;3.35;;;16.90;99.90;;;16.45;93.25;101281.31;4164611;28;20527;-79
2023/06/04 07:35:01;;;;;;;6.45;2.60;;;17.00;99.90;;;16.54;91.77;101277.59;4166797;28;20516;-80
2023/06/04 07:37:02;;;;;;;6.00;2.40;;;17.10;99.90;;;16.65;90.56;101280.78;4166806;28;20064;-80
2023/06/04 07:39:06;;;;;;;5.55;3.03;;;17.20;99.90;;;16.61;89.11;101267.00;4183618;28;20021;-80
2023/06/04 07:41:07;;;;;;;6.35;3.13;;;17.20;99.90;;;16.71;89.87;101267.56;4168830;28;20147;-80
2023/06/04 07:43:08;;;;;;;6.05;2.17;;;17.30;99.90;;;16.82;90.24;101260.94;4186176;28;20120;-80
2023/06/04 07:45:10;;;;;;;6.60;2.78;;;17.40;99.90;;;16.87;90.25;101261.25;4169853;28;20151;-79
2023/06/04 07:47:10;;;;;;;3.10;2.00;;;17.50;99.90;;;16.98;88.54;101268.78;4170033;28;20021;-76
2023/06/04 07:49:11;;;;;;;6.07;2.83;;;17.60;99.90;;;17.06;87.40;101272.16;4169706;28;20099;-76
2023/06/04 07:51:13;;;;;;;5.75;2.45;;;17.70;99.90;;;17.12;86.48;101263.41;4170721;28;20040;-78
2023/06/04 07:53:14;;;;;;;6.40;2.28;;;17.70;99.90;;;17.31;86.46;101287.84;4170834;28;20037;-81
2023/06/04 07:55:15;;;;;;;5.75;2.78;;;17.80;99.90;;;17.34;85.47;101277.66;4161354;28;20024;-81
2023/06/04 07:57:16;;;;;;;4.63;2.72;;;17.90;99.90;;;17.40;84.93;101274.22;4169491;28;20096;-81
2023/06/04 07:59:17;;;;;;;6.65;2.33;;;18.00;99.90;;;17.57;85.03;101272.19;4186083;28;20032;-82
2023/06/04 08:01:18;;;;;;;7.03;2.00;;;18.00;99.90;;;17.63;84.03;101282.94;4169679;28;20068;-81
2023/06/04 08:03:20;;;;;;;6.70;2.42;;;18.10;99.90;;;17.74;83.28;101270.13;4170779;28;20021;-82
2023/06/04 08:05:21;;;;;;;4.53;1.75;;;18.20;99.90;;;17.86;82.43;101287.28;4170728;28;20033;-81
2023/06/04 08:07:22;;;;;;;5.90;2.10;;;18.30;99.90;;;17.96;82.01;101280.59;4170353;28;20025;-82
2023/06/04 08:09:22;;;;;;;6.13;2.40;;;18.40;99.90;;;18.10;82.04;101287.72;4170419;28;20038;-82
2023/06/04 08:11:24;;;;;;;6.03;2.25;;;18.50;99.90;;;18.18;80.98;101276.09;4169516;28;20117;-82
2023/06/04 08:13:25;;;;;;;6.07;2.05;;;18.60;99.90;;;18.31;80.86;101270.84;4169398;28;20031;-81
2023/06/04 08:15:26;;;;;;;5.30;2.38;;;18.70;99.90;;;18.40;80.05;101267.00;4169175;28;20049;-81
2023/06/04 08:17:26;;;;;;;5.35;2.40;;;18.90;99.90;;;18.69;79.63;101284.72;4155355;28;20034;-81
2023/06/04 08:19:27;;;;;;;7.28;2.03;;;19.00;99.90;;;18.76;78.36;101280.22;4163135;28;20022;-81
2023/06/04 08:21:28;;;;;;;5.55;2.38;;;19.00;99.90;;;18.78;79.44;101265.69;4185957;28;20021;-81